Virginia Beach, Virginia
Current Conditions -  °F | °C
As of 10:56 AM on Monday 26 Jan 2015 (Local Time) from KNTU Reporting Station
Broken Clouds Broken Clouds  
Wind Chill: 50°   Ceiling: 12000
Heat Index: 50°   Visibility: 10mi
Dew Point: 42°   Wind: 6mph
Humidity: 74%   Direction: 20°NNE
Pressure: 29.65"   Gusts: NA
Location:  36.76°N, 76.06°W
Report Text: KNTU 261556Z 02005KT 10SM SCT042 BKN120 BKN280 10/06 A2965 RMK AO2 SLP043 T01000056 $
Loading
Personal Weather Stations






























Interactive Weather Map New forecast layout! Learn more

10-Day Weather Forecast

Advertisements
Track Severe Weather on mobile